Terminal Aerodrome Forecast
Issued by NWS

Current Version | Previous Version | Text Only | Print | Product List | Glossary On
Versions: 1 2 3 4 5 6 7 8 9 10 11 12 13 14 15 16 17 18 19 20 21 22 23 24 25
000
FTUS42 KCAE 310843 AAA
TAFDNL
TAF AMD
KDNL 310843Z 3109/0106 VRB03KT P6SM SCT060 BKN150
     FM311200 01005KT P6SM SCT100
     FM311800 04006KT P6SM SCT050 SCT150
     FM312300 VRB04KT P6SM FEW050 SCT150=

USA.gov is the U.S. government's official web portal to all federal, state and local government web resources and services.